createdAt,value
2019-05-30T00:00:12.536Z,9.00
2019-05-30T00:02:32.064Z,9.00
2019-05-30T00:05:00.669Z,9.00
2019-05-30T00:07:29.210Z,8.90
2019-05-30T00:09:58.379Z,8.90
2019-05-30T00:12:27.058Z,8.90
2019-05-30T00:14:56.515Z,8.90
2019-05-30T00:17:25.216Z,8.90
2019-05-30T00:19:55.024Z,8.90
2019-05-30T00:22:23.682Z,8.90
2019-05-30T00:24:52.227Z,8.80
2019-05-30T00:27:20.902Z,8.80
2019-05-30T00:29:49.446Z,8.70
2019-05-30T00:32:17.992Z,8.70
2019-05-30T00:34:46.513Z,8.70
2019-05-30T00:37:15.091Z,8.70
2019-05-30T00:39:44.422Z,8.70
2019-05-30T00:42:13.176Z,8.70
2019-05-30T00:44:41.759Z,8.70
2019-05-30T00:47:10.299Z,8.70
2019-05-30T00:49:38.892Z,8.60
2019-05-30T00:52:07.447Z,8.70
2019-05-30T00:54:35.991Z,8.70
2019-05-30T00:57:04.949Z,8.60
2019-05-30T00:59:34.188Z,8.60
2019-05-30T01:02:02.865Z,8.60
2019-05-30T01:04:31.482Z,8.70
2019-05-30T01:07:00.921Z,8.70
2019-05-30T01:09:29.648Z,8.70
2019-05-30T01:11:59.241Z,8.70
2019-05-30T01:14:27.735Z,8.70
2019-05-30T01:16:57.064Z,8.70
2019-05-30T01:19:25.810Z,8.70
2019-05-30T01:21:55.283Z,8.60
2019-05-30T01:24:23.921Z,8.60
2019-05-30T01:26:52.507Z,8.70
2019-05-30T01:29:21.041Z,8.60
2019-05-30T01:31:49.519Z,8.60
2019-05-30T01:34:18.851Z,8.60
2019-05-30T01:36:47.393Z,8.60
2019-05-30T01:39:15.891Z,8.70
2019-05-30T01:41:44.392Z,8.60
2019-05-30T01:44:13.017Z,8.70
2019-05-30T01:46:41.564Z,8.60
2019-05-30T01:49:10.222Z,8.60
2019-05-30T01:51:38.808Z,8.60
2019-05-30T01:54:07.318Z,8.60
2019-05-30T01:56:35.918Z,8.50
2019-05-30T01:59:04.866Z,8.50
2019-05-30T02:01:34.350Z,8.40
2019-05-30T02:04:03.249Z,8.40
2019-05-30T02:06:31.993Z,8.30
2019-05-30T02:09:01.111Z,8.30
2019-05-30T02:11:29.726Z,8.30
2019-05-30T02:13:59.440Z,8.30
2019-05-30T02:16:28.134Z,8.30
2019-05-30T02:18:56.736Z,8.30
2019-05-30T02:21:25.342Z,8.30
2019-05-30T02:23:53.921Z,8.20
2019-05-30T02:26:22.444Z,8.20
2019-05-30T02:28:50.914Z,8.30
2019-05-30T02:31:37.801Z,8.30
2019-05-30T02:33:49.644Z,8.20
2019-05-30T02:36:18.184Z,8.20
2019-05-30T02:38:46.800Z,8.10
2019-05-30T02:41:15.459Z,8.20
2019-05-30T02:43:44.329Z,8.10
2019-05-30T02:46:12.890Z,8.10
2019-05-30T02:48:57.448Z,8.10
2019-05-30T02:51:12.689Z,8.00
2019-05-30T02:53:41.458Z,8.00
2019-05-30T02:56:10.767Z,8.00
2019-05-30T02:58:40.169Z,8.00
2019-05-30T03:01:09.264Z,8.00
2019-05-30T03:03:38.906Z,8.10
2019-05-30T03:06:09.292Z,8.00
2019-05-30T03:08:38.259Z,8.00
2019-05-30T03:11:09.594Z,8.00
2019-05-30T03:13:37.232Z,8.00
2019-05-30T03:16:07.503Z,8.00
2019-05-30T03:18:36.170Z,8.10
2019-05-30T03:21:05.694Z,8.10
2019-05-30T03:23:35.050Z,8.10
2019-05-30T03:26:04.830Z,8.10
2019-05-30T03:28:33.914Z,8.10
2019-05-30T03:31:09.230Z,8.10
2019-05-30T03:33:40.645Z,8.10
2019-05-30T03:36:10.951Z,8.10
2019-05-30T03:38:35.559Z,8.10
2019-05-30T03:41:05.178Z,8.10
2019-05-30T03:43:34.566Z,8.10
2019-05-30T03:46:06.124Z,8.10
2019-05-30T03:48:36.287Z,8.10
2019-05-30T03:51:08.877Z,8.00
2019-05-30T03:53:37.179Z,7.90
2019-05-30T03:56:13.188Z,8.00
2019-05-30T03:58:56.567Z,8.00
2019-05-30T04:01:30.883Z,8.00
2019-05-30T04:04:06.473Z,8.00
2019-05-30T04:06:47.674Z,8.10
2019-05-30T04:09:22.465Z,8.00
2019-05-30T04:12:04.174Z,8.00
2019-05-30T04:14:35.794Z,8.00
2019-05-30T04:17:08.394Z,8.10
2019-05-30T04:19:36.779Z,8.20
2019-05-30T04:22:07.218Z,8.40
2019-05-30T04:24:35.734Z,8.50
2019-05-30T04:27:04.366Z,8.50
2019-05-30T04:29:32.904Z,8.40
2019-05-30T04:32:01.517Z,8.50
2019-05-30T04:34:30.049Z,8.70
2019-05-30T04:36:58.611Z,8.60
2019-05-30T04:39:27.242Z,8.50
2019-05-30T04:41:55.799Z,8.40
2019-05-30T04:44:24.408Z,8.50
2019-05-30T04:46:52.975Z,8.50
2019-05-30T04:49:21.810Z,8.50
2019-05-30T04:51:50.509Z,8.50
2019-05-30T04:54:20.866Z,8.40
2019-05-30T04:56:50.002Z,8.30
2019-05-30T04:59:19.841Z,8.40
2019-05-30T05:01:48.819Z,8.40
2019-05-30T05:04:17.778Z,8.40
2019-05-30T05:06:47.752Z,8.70
2019-05-30T05:09:18.197Z,8.80
2019-05-30T05:11:46.866Z,8.80
2019-05-30T05:14:16.395Z,8.80
2019-05-30T05:16:45.122Z,8.70
2019-05-30T05:19:14.894Z,8.90
2019-05-30T05:21:43.610Z,8.90
2019-05-30T05:24:13.405Z,8.90
2019-05-30T05:26:42.024Z,8.90
2019-05-30T05:29:10.593Z,8.90
2019-05-30T05:31:39.171Z,8.80
2019-05-30T05:34:07.726Z,8.80
2019-05-30T05:36:36.291Z,8.60
2019-05-30T05:39:07.456Z,8.60
2019-05-30T05:41:36.009Z,8.70
2019-05-30T05:44:04.811Z,8.80
2019-05-30T05:46:33.466Z,8.80
2019-05-30T05:49:01.955Z,8.80
2019-05-30T05:51:30.531Z,8.70
2019-05-30T05:53:59.244Z,8.70
2019-05-30T05:56:29.054Z,8.80
2019-05-30T05:58:57.841Z,8.80
2019-05-30T06:01:27.153Z,9.00
2019-05-30T06:04:11.659Z,9.10
2019-05-30T06:06:30.930Z,9.20
2019-05-30T06:08:56.681Z,9.30
2019-05-30T06:11:25.198Z,9.40
2019-05-30T06:13:55.146Z,9.40
2019-05-30T06:16:24.137Z,9.50
2019-05-30T06:18:52.734Z,9.90
2019-05-30T06:21:21.354Z,10.20
2019-05-30T06:23:50.261Z,10.20
2019-05-30T06:26:19.944Z,10.40
2019-05-30T06:28:49.222Z,10.50
2019-05-30T06:31:18.372Z,10.30
2019-05-30T06:33:46.998Z,10.30
2019-05-30T06:36:15.546Z,10.10
2019-05-30T06:38:44.127Z,9.90
2019-05-30T06:41:12.814Z,9.90
2019-05-30T06:43:41.509Z,9.80
2019-05-30T06:46:10.075Z,10.00
2019-05-30T06:48:38.622Z,10.20
2019-05-30T06:51:07.173Z,10.20
2019-05-30T06:53:35.694Z,10.30
2019-05-30T06:56:04.379Z,10.20
2019-05-30T06:58:47.352Z,10.20
2019-05-30T07:01:03.155Z,10.10
2019-05-30T07:03:32.687Z,10.30
2019-05-30T07:06:01.742Z,10.20
2019-05-30T07:08:33.511Z,10.20
2019-05-30T07:11:02.112Z,10.10
2019-05-30T07:13:31.654Z,10.30
2019-05-30T07:16:00.274Z,10.40
2019-05-30T07:18:33.176Z,10.60
2019-05-30T07:20:59.229Z,10.70
2019-05-30T07:23:27.896Z,10.80
2019-05-30T07:25:56.619Z,10.70
2019-05-30T07:28:25.811Z,10.90
2019-05-30T07:30:54.550Z,11.10
2019-05-30T07:33:23.950Z,11.10
2019-05-30T07:35:52.722Z,11.20
2019-05-30T07:38:26.284Z,11.30
2019-05-30T07:40:54.940Z,11.40
2019-05-30T07:43:25.353Z,11.50
2019-05-30T07:45:58.280Z,11.50
2019-05-30T07:48:24.342Z,11.40
2019-05-30T07:50:52.924Z,11.60
2019-05-30T07:53:21.534Z,11.70
2019-05-30T07:55:50.108Z,11.70
2019-05-30T07:58:19.287Z,11.80
2019-05-30T08:00:47.948Z,11.70
2019-05-30T08:03:16.496Z,11.70
2019-05-30T08:05:45.007Z,11.60
2019-05-30T08:08:14.291Z,11.50
2019-05-30T08:10:43.079Z,11.60
2019-05-30T08:13:11.691Z,11.60
2019-05-30T08:15:44.101Z,11.60
2019-05-30T08:18:10.609Z,11.50
2019-05-30T08:20:39.286Z,11.40
2019-05-30T08:23:10.106Z,11.40
2019-05-30T08:25:38.717Z,11.40
2019-05-30T08:28:07.304Z,11.50
2019-05-30T08:30:36.653Z,11.60
2019-05-30T08:33:05.538Z,11.70
2019-05-30T08:35:46.710Z,11.70
2019-05-30T08:38:04.419Z,11.90
2019-05-30T08:40:33.391Z,12.20
2019-05-30T08:43:02.250Z,12.20
2019-05-30T08:45:31.600Z,12.20
2019-05-30T08:48:00.415Z,12.40
2019-05-30T08:50:30.155Z,12.70
2019-05-30T08:52:58.919Z,13.10
2019-05-30T08:55:27.570Z,13.30
2019-05-30T08:57:56.168Z,13.00
2019-05-30T09:00:26.389Z,12.80
2019-05-30T09:02:55.105Z,12.60
2019-05-30T09:05:24.193Z,12.70
2019-05-30T09:07:52.803Z,12.70
2019-05-30T09:10:21.780Z,12.90
2019-05-30T09:12:50.379Z,12.90
2019-05-30T09:15:21.847Z,13.10
2019-05-30T09:17:49.496Z,13.10
2019-05-30T09:20:18.414Z,13.10
2019-05-30T09:22:47.437Z,12.90
2019-05-30T09:25:16.782Z,12.80
2019-05-30T09:27:46.593Z,12.80
2019-05-30T09:30:17.757Z,12.50
2019-05-30T09:32:46.965Z,12.30
2019-05-30T09:35:16.459Z,12.40
2019-05-30T09:37:45.876Z,12.20
2019-05-30T09:40:16.680Z,12.20
2019-05-30T09:42:46.948Z,12.30
2019-05-30T09:45:36.452Z,12.20
2019-05-30T09:48:05.235Z,12.40
2019-05-30T09:50:33.858Z,12.50
2019-05-30T09:53:02.364Z,12.60
2019-05-30T09:55:31.022Z,12.50
2019-05-30T09:57:59.518Z,12.60
2019-05-30T10:00:28.816Z,12.70
2019-05-30T10:02:57.378Z,12.70
2019-05-30T10:05:25.996Z,12.80
2019-05-30T10:07:54.672Z,13.00
2019-05-30T10:10:24.727Z,13.10
2019-05-30T10:12:53.513Z,13.20
2019-05-30T10:15:22.467Z,13.40
2019-05-30T10:17:52.942Z,13.50
2019-05-30T10:20:22.154Z,13.50
2019-05-30T10:22:52.430Z,13.50
2019-05-30T10:25:21.107Z,13.60
2019-05-30T10:27:50.893Z,13.80
2019-05-30T10:30:20.874Z,13.70
2019-05-30T10:32:53.782Z,13.90
2019-05-30T10:35:23.061Z,14.10
2019-05-30T10:37:52.805Z,14.40
2019-05-30T10:40:22.829Z,14.50
2019-05-30T10:42:53.109Z,14.60
2019-05-30T10:45:25.297Z,14.60
2019-05-30T10:47:53.736Z,14.30
2019-05-30T10:50:23.370Z,14.40
2019-05-30T10:52:53.702Z,14.40
2019-05-30T10:55:23.548Z,14.30
2019-05-30T10:57:56.214Z,14.30
2019-05-30T11:00:24.597Z,14.40
2019-05-30T11:02:53.220Z,14.70
2019-05-30T11:05:22.070Z,14.70
2019-05-30T11:08:05.467Z,14.60
2019-05-30T11:10:38.884Z,14.40
2019-05-30T11:13:13.026Z,14.30
2019-05-30T11:15:41.755Z,14.20
2019-05-30T11:18:10.532Z,13.90
2019-05-30T11:20:39.173Z,14.00
2019-05-30T11:23:08.082Z,13.90
2019-05-30T11:25:37.374Z,14.00
2019-05-30T11:28:09.634Z,14.00
2019-05-30T11:30:38.448Z,14.10
2019-05-30T11:33:07.000Z,14.20
2019-05-30T11:35:36.031Z,14.10
2019-05-30T11:38:06.795Z,14.00
2019-05-30T11:40:35.415Z,14.20
2019-05-30T11:43:04.141Z,14.30
2019-05-30T11:45:32.796Z,14.20
2019-05-30T11:48:01.373Z,14.30
2019-05-30T11:50:31.510Z,14.20
2019-05-30T11:53:00.319Z,14.20
2019-05-30T11:55:28.960Z,14.00
2019-05-30T11:57:58.322Z,13.90
2019-05-30T12:00:27.932Z,13.80
2019-05-30T12:02:56.687Z,13.80
2019-05-30T12:05:26.378Z,13.70
2019-05-30T12:07:55.082Z,13.70
2019-05-30T12:10:24.299Z,13.70
2019-05-30T12:12:53.331Z,13.70
2019-05-30T12:15:22.672Z,13.80
2019-05-30T12:17:51.284Z,13.90
2019-05-30T12:20:19.943Z,14.00
2019-05-30T12:22:49.028Z,14.00
2019-05-30T12:25:17.828Z,14.10
2019-05-30T12:27:46.529Z,14.20
2019-05-30T12:30:15.744Z,14.20
2019-05-30T12:32:44.463Z,14.30
2019-05-30T12:35:14.025Z,14.40
2019-05-30T12:37:54.032Z,14.50
2019-05-30T12:40:13.885Z,14.40
2019-05-30T12:42:42.438Z,14.30
2019-05-30T12:45:12.868Z,14.20
2019-05-30T12:47:41.449Z,14.20
2019-05-30T12:50:12.225Z,14.00
2019-05-30T12:52:40.967Z,14.00
2019-05-30T12:55:10.231Z,14.00
2019-05-30T12:57:38.943Z,13.90
2019-05-30T13:00:17.550Z,13.80
2019-05-30T13:02:43.765Z,13.80
2019-05-30T13:05:13.574Z,13.60
2019-05-30T13:07:42.503Z,13.70
2019-05-30T13:10:11.801Z,13.50
2019-05-30T13:12:40.462Z,13.60
2019-05-30T13:15:09.514Z,13.70
2019-05-30T13:17:38.297Z,13.60
2019-05-30T13:20:08.424Z,13.70
2019-05-30T13:22:37.351Z,13.70
2019-05-30T13:25:10.424Z,13.80
2019-05-30T13:27:39.056Z,13.80
2019-05-30T13:30:09.479Z,13.80
2019-05-30T13:32:38.332Z,13.90
2019-05-30T13:35:07.874Z,14.00
2019-05-30T13:37:36.629Z,14.00
2019-05-30T13:40:23.641Z,14.10
2019-05-30T13:42:39.825Z,14.20
2019-05-30T13:45:11.446Z,14.20
2019-05-30T13:47:40.071Z,14.20
2019-05-30T13:50:13.439Z,14.10
2019-05-30T13:52:40.821Z,14.00
2019-05-30T13:55:10.291Z,14.00
2019-05-30T13:57:39.137Z,14.00
2019-05-30T14:00:12.976Z,14.10
2019-05-30T14:02:41.680Z,14.00
2019-05-30T14:05:11.599Z,13.80
2019-05-30T14:07:40.292Z,13.80
2019-05-30T14:10:10.731Z,13.70
2019-05-30T14:12:39.809Z,13.60
2019-05-30T14:15:13.558Z,13.50
2019-05-30T14:17:40.796Z,13.40
2019-05-30T14:20:11.236Z,13.50
2019-05-30T14:22:40.113Z,13.50
2019-05-30T14:25:09.806Z,13.50
2019-05-30T14:27:38.808Z,13.60
2019-05-30T14:30:10.851Z,13.50
2019-05-30T14:32:40.729Z,13.30
2019-05-30T14:35:11.800Z,12.90
2019-05-30T14:37:41.820Z,12.80
2019-05-30T14:40:13.035Z,12.60
2019-05-30T14:42:41.888Z,12.60
2019-05-30T14:45:12.771Z,12.50
2019-05-30T14:47:41.495Z,12.70
2019-05-30T14:50:11.286Z,12.50
2019-05-30T14:52:40.104Z,12.00
2019-05-30T14:55:09.490Z,12.10
2019-05-30T14:57:38.602Z,12.40
2019-05-30T15:00:17.504Z,12.30
2019-05-30T15:02:46.494Z,12.00
2019-05-30T15:05:18.808Z,12.00
2019-05-30T15:07:47.468Z,12.10
2019-05-30T15:10:17.007Z,12.30
2019-05-30T15:12:46.038Z,12.20
2019-05-30T15:15:18.564Z,12.10
2019-05-30T15:17:46.777Z,12.10
2019-05-30T15:20:17.592Z,11.80
2019-05-30T15:23:05.932Z,11.90
2019-05-30T15:25:34.581Z,11.80
2019-05-30T15:28:03.262Z,11.70
2019-05-30T15:30:32.438Z,11.50
2019-05-30T15:33:00.974Z,11.60
2019-05-30T15:35:30.326Z,11.70
2019-05-30T15:37:58.963Z,11.60
2019-05-30T15:40:27.603Z,11.50
2019-05-30T15:42:56.209Z,11.30
2019-05-30T15:45:24.842Z,11.30
2019-05-30T15:47:53.431Z,11.20
2019-05-30T15:50:21.976Z,11.20
2019-05-30T15:52:50.683Z,11.10
2019-05-30T15:55:20.224Z,11.10
2019-05-30T15:57:49.501Z,10.90
2019-05-30T16:00:19.985Z,10.90
2019-05-30T16:02:48.511Z,10.50
2019-05-30T16:05:18.779Z,10.40
2019-05-30T16:07:47.296Z,10.40
2019-05-30T16:10:17.195Z,10.50
2019-05-30T16:12:45.869Z,10.30
2019-05-30T16:15:17.466Z,10.10
2019-05-30T16:17:46.351Z,10.10
2019-05-30T16:20:15.926Z,10.00
2019-05-30T16:22:44.891Z,9.90
2019-05-30T16:25:14.098Z,10.00
2019-05-30T16:27:42.754Z,10.00
2019-05-30T16:30:12.523Z,9.70
2019-05-30T16:32:42.614Z,9.80
2019-05-30T16:35:13.986Z,9.70
2019-05-30T16:37:42.819Z,9.40
2019-05-30T16:40:11.847Z,9.60
2019-05-30T16:42:41.246Z,9.50
2019-05-30T16:45:11.738Z,9.60
2019-05-30T16:47:40.556Z,9.70
2019-05-30T16:50:09.868Z,9.60
2019-05-30T16:52:38.518Z,9.60
2019-05-30T16:55:08.219Z,9.60
2019-05-30T16:57:36.832Z,9.70
2019-05-30T17:00:10.990Z,9.70
2019-05-30T17:02:39.567Z,9.70
2019-05-30T17:05:08.653Z,9.70
2019-05-30T17:07:37.172Z,9.60
2019-05-30T17:10:21.367Z,9.50
2019-05-30T17:12:38.065Z,9.40
2019-05-30T17:15:08.994Z,9.00
2019-05-30T17:17:37.598Z,8.90
2019-05-30T17:20:07.924Z,9.10
2019-05-30T17:22:36.579Z,8.90
2019-05-30T17:25:08.767Z,9.20
2019-05-30T17:27:37.506Z,9.10
2019-05-30T17:30:08.483Z,9.30
2019-05-30T17:32:37.132Z,9.20
2019-05-30T17:35:07.025Z,9.30
2019-05-30T17:37:36.140Z,9.30
2019-05-30T17:40:06.692Z,9.30
2019-05-30T17:42:36.248Z,9.30
2019-05-30T17:45:11.548Z,9.30
2019-05-30T17:47:40.187Z,9.30
2019-05-30T17:50:10.986Z,9.40
2019-05-30T17:52:39.639Z,9.40
2019-05-30T17:55:09.484Z,9.30
2019-05-30T17:57:38.288Z,9.20
2019-05-30T18:00:14.470Z,9.10
2019-05-30T18:02:43.114Z,8.90
2019-05-30T18:05:12.740Z,9.00
2019-05-30T18:07:42.332Z,9.20
2019-05-30T18:10:12.775Z,9.30
2019-05-30T18:12:41.352Z,9.20
2019-05-30T18:15:11.740Z,9.20
2019-05-30T18:17:40.421Z,9.20
2019-05-30T18:20:10.047Z,9.30
2019-05-30T18:22:38.650Z,9.20
2019-05-30T18:25:10.990Z,9.10
2019-05-30T18:27:39.683Z,9.10
2019-05-30T18:30:09.629Z,9.00
2019-05-30T18:32:45.477Z,9.00
2019-05-30T18:35:22.109Z,9.00
2019-05-30T18:37:50.847Z,9.10
2019-05-30T18:40:31.077Z,9.10
2019-05-30T18:42:59.743Z,9.10
2019-05-30T18:45:37.383Z,9.10
2019-05-30T18:48:06.164Z,9.10
2019-05-30T18:50:35.699Z,9.00
2019-05-30T18:53:05.076Z,9.00
2019-05-30T18:55:33.836Z,9.10
2019-05-30T18:58:02.532Z,9.10
2019-05-30T19:00:31.330Z,9.20
2019-05-30T19:03:00.124Z,9.20
2019-05-30T19:05:31.331Z,9.20
2019-05-30T19:08:00.010Z,9.10
2019-05-30T19:10:29.947Z,9.20
2019-05-30T19:12:58.576Z,9.10
2019-05-30T19:15:30.044Z,9.20
2019-05-30T19:17:58.174Z,9.20
2019-05-30T19:20:27.663Z,9.20
2019-05-30T19:22:56.446Z,9.30
2019-05-30T19:25:25.199Z,9.20
2019-05-30T19:27:55.111Z,9.20
2019-05-30T19:30:24.702Z,9.30
2019-05-30T19:32:53.278Z,9.30
2019-05-30T19:35:21.955Z,9.30
2019-05-30T19:37:50.539Z,9.30
2019-05-30T19:40:19.174Z,9.30
2019-05-30T19:42:47.735Z,9.40
2019-05-30T19:45:17.009Z,9.40
2019-05-30T19:47:45.567Z,9.40
2019-05-30T19:50:14.354Z,9.40
2019-05-30T19:52:42.979Z,9.50
2019-05-30T19:55:12.174Z,9.50
2019-05-30T19:57:40.799Z,9.50
2019-05-30T20:00:12.180Z,9.50
2019-05-30T20:02:40.748Z,9.50
2019-05-30T20:05:09.945Z,9.60
2019-05-30T20:07:38.932Z,9.60
2019-05-30T20:10:08.026Z,9.60
2019-05-30T20:12:37.058Z,9.50
2019-05-30T20:15:12.177Z,9.50
2019-05-30T20:17:44.902Z,9.50
2019-05-30T20:20:14.769Z,9.50
2019-05-30T20:22:43.399Z,9.50
2019-05-30T20:25:12.298Z,9.40
2019-05-30T20:27:41.179Z,9.50
2019-05-30T20:30:13.711Z,9.50
2019-05-30T20:32:43.278Z,9.40
2019-05-30T20:35:13.403Z,9.40
2019-05-30T20:37:43.889Z,9.50
2019-05-30T20:40:14.188Z,9.40
2019-05-30T20:42:43.093Z,9.40
2019-05-30T20:45:12.130Z,9.40
2019-05-30T20:47:42.598Z,9.40
2019-05-30T20:50:14.915Z,9.30
2019-05-30T20:52:45.734Z,9.40
2019-05-30T20:55:14.879Z,9.50
2019-05-30T20:57:43.516Z,9.40
2019-05-30T21:00:14.357Z,9.40
2019-05-30T21:02:43.673Z,9.50
2019-05-30T21:05:12.823Z,9.50
2019-05-30T21:07:44.281Z,9.40
2019-05-30T21:10:15.072Z,9.40
2019-05-30T21:12:48.981Z,9.40
2019-05-30T21:15:17.363Z,9.30
2019-05-30T21:17:46.888Z,9.30
2019-05-30T21:20:16.074Z,9.30
2019-05-30T21:22:44.874Z,9.40
2019-05-30T21:25:14.120Z,9.40
2019-05-30T21:27:43.025Z,9.30
2019-05-30T21:30:12.301Z,9.30
2019-05-30T21:32:42.104Z,9.30
2019-05-30T21:35:11.210Z,9.30
2019-05-30T21:37:39.934Z,9.30
2019-05-30T21:40:09.861Z,9.40
2019-05-30T21:42:56.793Z,9.40
2019-05-30T21:45:09.258Z,9.40
2019-05-30T21:47:38.725Z,9.30
2019-05-30T21:50:09.266Z,9.30
2019-05-30T21:52:39.286Z,9.30
2019-05-30T21:55:08.139Z,9.30
2019-05-30T21:57:36.783Z,9.30
2019-05-30T22:00:15.232Z,9.30
2019-05-30T22:02:50.789Z,9.30
2019-05-30T22:05:19.509Z,9.30
2019-05-30T22:07:49.122Z,9.30
2019-05-30T22:10:19.427Z,9.30
2019-05-30T22:12:47.984Z,9.30
2019-05-30T22:15:17.199Z,9.30
2019-05-30T22:17:45.793Z,9.30
2019-05-30T22:20:14.614Z,9.30
2019-05-30T22:22:43.882Z,9.30
2019-05-30T22:25:13.401Z,9.30
2019-05-30T22:27:42.222Z,9.20
2019-05-30T22:30:11.289Z,9.20
2019-05-30T22:32:39.844Z,9.20
2019-05-30T22:35:08.457Z,9.20
2019-05-30T22:37:37.042Z,9.20
2019-05-30T22:40:06.433Z,9.20
2019-05-30T22:42:34.998Z,9.20
2019-05-30T22:45:05.273Z,9.20
2019-05-30T22:47:33.888Z,9.20
2019-05-30T22:50:02.501Z,9.20
2019-05-30T22:52:31.131Z,9.30
2019-05-30T22:54:59.669Z,9.30
2019-05-30T22:57:28.215Z,9.20
2019-05-30T22:59:57.142Z,9.20
2019-05-30T23:02:27.457Z,9.20
2019-05-30T23:04:56.418Z,9.20
2019-05-30T23:07:25.058Z,9.30
2019-05-30T23:09:53.953Z,9.30
2019-05-30T23:12:22.594Z,9.30
2019-05-30T23:14:52.165Z,9.30
2019-05-30T23:17:20.958Z,9.30
2019-05-30T23:19:50.947Z,9.30
2019-05-30T23:22:19.903Z,9.30
2019-05-30T23:24:49.201Z,9.30
2019-05-30T23:27:17.916Z,9.30
2019-05-30T23:29:47.604Z,9.30
2019-05-30T23:32:16.218Z,9.30
2019-05-30T23:34:44.698Z,9.30
2019-05-30T23:37:13.274Z,9.20
2019-05-30T23:39:41.889Z,9.30
2019-05-30T23:42:10.366Z,9.50
2019-05-30T23:44:38.889Z,9.50
2019-05-30T23:47:07.496Z,9.40
2019-05-30T23:49:36.239Z,9.30
2019-05-30T23:52:05.301Z,9.30
2019-05-30T23:54:33.942Z,9.30
2019-05-30T23:57:02.493Z,9.20
2019-05-30T23:59:31.059Z,9.20
